createdAt,value
2017-12-23T00:01:55.291Z,5.30
2017-12-23T00:04:23.731Z,5.40
2017-12-23T00:06:52.068Z,5.30
2017-12-23T00:09:20.407Z,5.40
2017-12-23T00:11:48.804Z,5.40
2017-12-23T00:14:17.114Z,5.40
2017-12-23T00:16:46.146Z,5.40
2017-12-23T00:19:14.463Z,5.40
2017-12-23T00:21:42.787Z,5.40
2017-12-23T00:24:11.106Z,5.50
2017-12-23T00:26:39.404Z,5.50
2017-12-23T00:29:07.739Z,5.50
2017-12-23T00:31:36.830Z,5.60
2017-12-23T00:34:05.215Z,5.60
2017-12-23T00:36:33.506Z,5.50
2017-12-23T00:39:01.831Z,5.50
2017-12-23T00:41:30.879Z,5.50
2017-12-23T00:43:59.209Z,5.50
2017-12-23T00:46:27.486Z,5.60
2017-12-23T00:48:55.828Z,5.50
2017-12-23T00:51:24.119Z,5.50
2017-12-23T00:53:52.449Z,5.60
2017-12-23T00:56:20.735Z,5.60
2017-12-23T00:58:49.059Z,5.60
2017-12-23T01:01:18.125Z,5.50
2017-12-23T01:03:46.451Z,5.50
2017-12-23T01:06:14.739Z,5.60
2017-12-23T01:08:44.649Z,5.60
2017-12-23T01:11:12.931Z,5.60
2017-12-23T01:13:41.255Z,5.60
2017-12-23T01:16:09.544Z,5.50
2017-12-23T01:18:39.396Z,5.60
2017-12-23T01:21:08.442Z,5.50
2017-12-23T01:23:36.733Z,5.50
2017-12-23T01:26:05.073Z,5.60
2017-12-23T01:28:34.154Z,5.50
2017-12-23T01:31:02.447Z,5.50
2017-12-23T01:33:30.765Z,5.50
2017-12-23T01:35:59.856Z,5.60
2017-12-23T01:38:28.139Z,5.60
2017-12-23T01:40:56.454Z,5.50
2017-12-23T01:43:25.510Z,5.60
2017-12-23T01:45:53.863Z,5.60
2017-12-23T01:48:33.758Z,5.60
2017-12-23T01:51:02.119Z,5.60
2017-12-23T01:53:30.415Z,5.50
2017-12-23T01:55:58.762Z,5.50
2017-12-23T01:58:27.254Z,5.60
2017-12-23T02:00:55.538Z,5.50
2017-12-23T02:03:23.819Z,5.60
2017-12-23T02:05:52.154Z,5.60
2017-12-23T02:08:21.235Z,5.60
2017-12-23T02:10:51.094Z,5.60
2017-12-23T02:13:19.397Z,5.60
2017-12-23T02:15:47.840Z,5.60
2017-12-23T02:18:16.166Z,5.60
2017-12-23T02:20:44.586Z,5.60
2017-12-23T02:23:12.879Z,5.60
2017-12-23T02:25:41.203Z,5.60
2017-12-23T02:28:09.492Z,5.60
2017-12-23T02:30:37.816Z,5.60
2017-12-23T02:33:06.862Z,5.60
2017-12-23T02:35:35.182Z,5.60
2017-12-23T02:38:03.468Z,5.60
2017-12-23T02:40:31.798Z,5.70
2017-12-23T02:43:00.131Z,5.70
2017-12-23T02:45:28.420Z,5.70
2017-12-23T02:47:56.746Z,5.70
2017-12-23T02:50:25.848Z,5.70
2017-12-23T02:52:54.327Z,5.70
2017-12-23T02:55:24.150Z,5.70
2017-12-23T02:57:52.435Z,5.70
2017-12-23T03:00:20.763Z,5.70
2017-12-23T03:02:49.051Z,5.60
2017-12-23T03:05:18.094Z,5.60
2017-12-23T03:07:46.407Z,5.60
2017-12-23T03:10:14.739Z,5.70
2017-12-23T03:12:43.819Z,5.70
2017-12-23T03:15:12.164Z,5.70
2017-12-23T03:17:40.489Z,5.50
2017-12-23T03:20:08.766Z,5.60
2017-12-23T03:22:37.169Z,5.60
2017-12-23T03:25:06.290Z,5.60
2017-12-23T03:27:34.603Z,5.60
2017-12-23T03:30:03.690Z,5.70
2017-12-23T03:32:32.747Z,5.70
2017-12-23T03:35:01.090Z,5.70
2017-12-23T03:37:30.145Z,5.70
2017-12-23T03:39:58.427Z,5.70
2017-12-23T03:42:26.747Z,5.70
2017-12-23T03:44:55.071Z,5.70
2017-12-23T03:47:24.119Z,5.70
2017-12-23T03:49:52.447Z,5.70
2017-12-23T03:52:20.762Z,5.70
2017-12-23T03:54:49.326Z,5.80
2017-12-23T03:57:17.614Z,5.70
2017-12-23T03:59:45.905Z,5.60
2017-12-23T04:02:14.224Z,5.60
2017-12-23T04:04:43.319Z,5.60
2017-12-23T04:07:12.414Z,5.70
2017-12-23T04:09:40.883Z,5.70
2017-12-23T04:12:09.595Z,5.70
2017-12-23T04:14:37.878Z,5.60
2017-12-23T04:17:06.181Z,5.60
2017-12-23T04:19:34.567Z,5.70
2017-12-23T04:22:02.861Z,5.60
2017-12-23T04:24:31.187Z,5.70
2017-12-23T04:26:59.470Z,5.70
2017-12-23T04:29:27.805Z,5.60
2017-12-23T04:31:56.111Z,5.60
2017-12-23T04:34:24.483Z,5.60
2017-12-23T04:36:52.759Z,5.50
2017-12-23T04:39:21.043Z,5.60
2017-12-23T04:41:49.362Z,5.60
2017-12-23T04:44:17.691Z,5.50
2017-12-23T04:46:45.979Z,5.50
2017-12-23T04:49:14.316Z,5.50
2017-12-23T04:51:42.594Z,5.40
2017-12-23T04:54:10.922Z,5.50
2017-12-23T04:56:39.974Z,5.40
2017-12-23T04:59:08.410Z,5.30
2017-12-23T05:01:38.200Z,5.30
2017-12-23T05:04:06.499Z,5.30
2017-12-23T05:06:34.911Z,5.40
2017-12-23T05:09:04.756Z,5.10
2017-12-23T05:11:33.810Z,5.20
2017-12-23T05:14:02.130Z,5.20
2017-12-23T05:16:30.462Z,5.20
2017-12-23T05:18:58.814Z,5.20
2017-12-23T05:21:27.094Z,5.30
2017-12-23T05:23:55.430Z,5.20
2017-12-23T05:26:23.782Z,5.20
2017-12-23T05:28:52.106Z,5.20
2017-12-23T05:31:20.398Z,5.20
2017-12-23T05:33:48.683Z,5.20
2017-12-23T05:36:17.009Z,5.20
2017-12-23T05:38:45.295Z,5.20
2017-12-23T05:41:13.633Z,5.20
2017-12-23T05:43:42.725Z,5.10
2017-12-23T05:46:11.046Z,5.10
2017-12-23T05:48:39.334Z,5.00
2017-12-23T05:51:08.605Z,5.20
2017-12-23T05:53:36.887Z,5.20
2017-12-23T05:56:05.171Z,5.10
2017-12-23T05:58:33.533Z,5.10
2017-12-23T06:01:01.819Z,5.10
2017-12-23T06:03:30.104Z,5.10
2017-12-23T06:05:58.418Z,5.10
2017-12-23T06:08:26.702Z,5.10
2017-12-23T06:10:55.039Z,5.10
2017-12-23T06:13:23.323Z,5.00
2017-12-23T06:15:51.646Z,5.10
2017-12-23T06:18:19.940Z,5.00
2017-12-23T06:20:48.271Z,5.10
2017-12-23T06:23:16.555Z,5.00
2017-12-23T06:25:44.968Z,5.00
2017-12-23T06:28:13.348Z,5.00
2017-12-23T06:30:41.636Z,5.00
2017-12-23T06:33:09.919Z,5.00
2017-12-23T06:35:38.258Z,5.00
2017-12-23T06:38:07.351Z,5.10
2017-12-23T06:40:36.406Z,5.00
2017-12-23T06:43:04.689Z,5.00
2017-12-23T06:45:33.010Z,5.10
2017-12-23T06:48:01.343Z,5.10
2017-12-23T06:50:29.634Z,5.20
2017-12-23T06:52:57.917Z,5.20
2017-12-23T06:55:27.092Z,5.30
2017-12-23T06:57:55.379Z,5.30
2017-12-23T07:00:23.783Z,5.20
2017-12-23T07:02:52.058Z,5.30
2017-12-23T07:05:20.387Z,5.20
2017-12-23T07:07:48.676Z,5.10
2017-12-23T07:10:17.775Z,5.20
2017-12-23T07:12:46.877Z,5.30
2017-12-23T07:15:15.963Z,5.20
2017-12-23T07:17:44.306Z,5.20
2017-12-23T07:20:12.594Z,5.30
2017-12-23T07:22:40.934Z,5.20
2017-12-23T07:25:09.278Z,5.20
2017-12-23T07:27:37.623Z,5.30
2017-12-23T07:30:06.008Z,5.20
2017-12-23T07:32:34.295Z,5.30
2017-12-23T07:35:02.623Z,5.30
2017-12-23T07:37:30.955Z,5.40
2017-12-23T07:39:59.245Z,5.30
2017-12-23T07:42:28.892Z,5.30
2017-12-23T07:44:57.182Z,5.30
2017-12-23T07:47:25.548Z,5.40
2017-12-23T07:49:53.865Z,5.40
2017-12-23T07:52:22.167Z,5.40
2017-12-23T07:54:51.264Z,5.40
2017-12-23T07:57:19.599Z,5.40
2017-12-23T07:59:48.035Z,5.40
2017-12-23T08:02:16.658Z,5.50
2017-12-23T08:04:45.715Z,5.50
2017-12-23T08:07:13.994Z,5.50
2017-12-23T08:09:42.381Z,5.50
2017-12-23T08:12:10.716Z,5.50
2017-12-23T08:14:39.007Z,5.60
2017-12-23T08:17:07.391Z,5.80
2017-12-23T08:19:35.678Z,5.80
2017-12-23T08:22:04.021Z,5.70
2017-12-23T08:24:32.311Z,5.80
2017-12-23T08:27:00.655Z,5.80
2017-12-23T08:29:28.938Z,5.80
2017-12-23T08:31:57.331Z,5.90
2017-12-23T08:34:25.727Z,5.90
2017-12-23T08:36:54.015Z,5.90
2017-12-23T08:39:22.356Z,6.00
2017-12-23T08:41:50.647Z,6.00
2017-12-23T08:44:18.986Z,6.00
2017-12-23T08:46:47.481Z,6.10
2017-12-23T08:49:15.771Z,6.10
2017-12-23T08:51:44.827Z,6.10
2017-12-23T08:54:13.198Z,6.10
2017-12-23T08:56:42.230Z,6.10
2017-12-23T08:59:11.783Z,6.10
2017-12-23T09:01:42.117Z,6.30
2017-12-23T09:04:10.480Z,6.30
2017-12-23T09:06:38.767Z,6.40
2017-12-23T09:09:07.107Z,6.30
2017-12-23T09:11:36.171Z,6.30
2017-12-23T09:14:04.679Z,6.30
2017-12-23T09:16:32.967Z,6.40
2017-12-23T09:19:01.334Z,6.60
2017-12-23T09:21:29.674Z,6.50
2017-12-23T09:23:57.986Z,6.50
2017-12-23T09:26:27.131Z,6.60
2017-12-23T09:28:55.464Z,6.60
2017-12-23T09:31:23.754Z,6.60
2017-12-23T09:33:52.851Z,6.70
2017-12-23T09:36:21.147Z,6.70
2017-12-23T09:38:50.254Z,6.80
2017-12-23T09:41:18.543Z,6.80
2017-12-23T09:43:46.830Z,6.80
2017-12-23T09:46:15.191Z,6.70
2017-12-23T09:48:43.476Z,6.80
2017-12-23T09:51:11.763Z,6.90
2017-12-23T09:53:40.138Z,6.80
2017-12-23T09:56:08.435Z,6.90
2017-12-23T09:58:36.988Z,6.90
2017-12-23T10:01:06.107Z,7.00
2017-12-23T10:03:35.171Z,7.00
2017-12-23T10:06:03.467Z,7.00
2017-12-23T10:08:31.834Z,6.90
2017-12-23T10:11:00.155Z,7.00
2017-12-23T10:13:28.447Z,7.00
2017-12-23T10:15:56.907Z,7.00
2017-12-23T10:18:25.240Z,7.00
2017-12-23T10:20:54.295Z,7.00
2017-12-23T10:23:22.636Z,7.00
2017-12-23T10:25:50.968Z,7.00
2017-12-23T10:28:19.322Z,7.00
2017-12-23T10:30:48.385Z,7.00
2017-12-23T10:33:16.718Z,7.00
2017-12-23T10:35:45.811Z,7.00
2017-12-23T10:38:14.295Z,7.00
2017-12-23T10:40:42.578Z,7.00
2017-12-23T10:43:10.871Z,7.00
2017-12-23T10:45:39.221Z,7.10
2017-12-23T10:48:07.499Z,7.10
2017-12-23T10:50:35.872Z,7.00
2017-12-23T10:53:04.328Z,7.00
2017-12-23T10:55:32.698Z,7.00
2017-12-23T10:58:01.099Z,7.00
2017-12-23T11:00:29.387Z,7.10
2017-12-23T11:02:57.714Z,7.10
2017-12-23T11:05:26.808Z,7.10
2017-12-23T11:07:55.130Z,7.10
2017-12-23T11:10:24.184Z,7.20
2017-12-23T11:12:52.510Z,7.10
2017-12-23T11:15:20.826Z,7.20
2017-12-23T11:17:49.163Z,7.20
2017-12-23T11:20:17.451Z,7.20
2017-12-23T11:22:45.737Z,7.20
2017-12-23T11:25:14.051Z,7.30
2017-12-23T11:27:42.367Z,7.30
2017-12-23T11:30:10.651Z,7.30
2017-12-23T11:32:39.747Z,7.40
2017-12-23T11:35:08.791Z,7.50
2017-12-23T11:37:37.079Z,7.50
2017-12-23T11:40:05.459Z,7.50
2017-12-23T11:42:33.906Z,7.60
2017-12-23T11:45:02.202Z,7.60
2017-12-23T11:47:30.482Z,7.70
2017-12-23T11:49:58.836Z,7.70
2017-12-23T11:52:27.110Z,7.80
2017-12-23T11:54:55.400Z,7.80
2017-12-23T11:57:23.715Z,7.90
2017-12-23T11:59:52.063Z,8.00
2017-12-23T12:02:21.111Z,8.00
2017-12-23T12:04:49.430Z,8.00
2017-12-23T12:07:17.783Z,8.00
2017-12-23T12:09:46.054Z,8.00
2017-12-23T12:12:14.340Z,8.10
2017-12-23T12:14:42.671Z,8.10
2017-12-23T12:17:13.111Z,8.20
2017-12-23T12:19:41.667Z,8.20
2017-12-23T12:22:10.406Z,8.30
2017-12-23T12:24:38.779Z,8.30
2017-12-23T12:27:07.069Z,8.40
2017-12-23T12:29:35.390Z,8.40
2017-12-23T12:32:03.683Z,8.40
2017-12-23T12:34:32.015Z,8.40
2017-12-23T12:37:00.331Z,8.40
2017-12-23T12:39:28.645Z,8.40
2017-12-23T12:41:56.931Z,8.40
2017-12-23T12:44:25.275Z,8.30
2017-12-23T12:46:53.564Z,8.40
2017-12-23T12:49:21.908Z,8.50
2017-12-23T12:51:50.228Z,8.50
2017-12-23T12:54:19.275Z,8.50
2017-12-23T12:56:47.588Z,8.50
2017-12-23T12:59:15.871Z,8.50
2017-12-23T13:01:44.231Z,8.50
2017-12-23T13:04:12.499Z,8.60
2017-12-23T13:06:40.823Z,8.60
2017-12-23T13:09:09.104Z,8.60
2017-12-23T13:11:37.392Z,8.50
2017-12-23T13:14:05.826Z,8.50
2017-12-23T13:16:35.615Z,8.50
2017-12-23T13:19:03.894Z,8.50
2017-12-23T13:21:32.230Z,8.60
2017-12-23T13:24:00.546Z,8.50
2017-12-23T13:26:29.635Z,8.60
2017-12-23T13:28:58.683Z,8.60
2017-12-23T13:31:27.019Z,8.60
2017-12-23T13:33:55.351Z,8.50
2017-12-23T13:36:23.682Z,8.60
2017-12-23T13:38:52.084Z,8.60
2017-12-23T13:41:20.373Z,8.60
2017-12-23T13:43:48.650Z,8.70
2017-12-23T13:46:18.283Z,8.60
2017-12-23T13:48:46.566Z,8.70
2017-12-23T13:51:15.027Z,8.70
2017-12-23T13:53:43.310Z,8.70
2017-12-23T13:56:11.639Z,8.70
2017-12-23T13:58:39.922Z,8.70
2017-12-23T14:01:08.259Z,8.60
2017-12-23T14:03:37.299Z,8.70
2017-12-23T14:06:06.155Z,8.70
2017-12-23T14:08:35.195Z,8.70
2017-12-23T14:11:03.509Z,8.70
2017-12-23T14:13:31.973Z,8.70
2017-12-23T14:16:00.307Z,8.80
2017-12-23T14:18:30.095Z,8.80
2017-12-23T14:20:58.412Z,8.80
2017-12-23T14:23:26.727Z,8.90
2017-12-23T14:25:55.011Z,8.90
2017-12-23T14:28:23.346Z,8.90
2017-12-23T14:30:51.631Z,8.90
2017-12-23T14:33:19.907Z,8.80
2017-12-23T14:35:48.226Z,8.80
2017-12-23T14:38:16.553Z,8.80
2017-12-23T14:40:44.812Z,8.90
2017-12-23T14:43:13.219Z,8.80
2017-12-23T14:45:41.504Z,8.90
2017-12-23T14:48:09.828Z,8.90
2017-12-23T14:50:39.161Z,9.00
2017-12-23T14:53:07.507Z,8.90
2017-12-23T14:55:35.783Z,9.00
2017-12-23T14:58:04.091Z,8.90
2017-12-23T15:00:32.376Z,9.00
2017-12-23T15:03:00.759Z,9.00
2017-12-23T15:05:29.044Z,8.90
2017-12-23T15:07:57.329Z,8.90
2017-12-23T15:10:25.647Z,9.00
2017-12-23T15:12:54.019Z,8.90
2017-12-23T15:15:22.299Z,8.90
2017-12-23T15:17:50.632Z,8.90
2017-12-23T15:20:19.684Z,8.80
2017-12-23T15:22:48.039Z,8.80
2017-12-23T15:25:16.386Z,8.80
2017-12-23T15:27:44.667Z,8.80
2017-12-23T15:30:12.996Z,8.80
2017-12-23T15:32:42.056Z,8.80
2017-12-23T15:35:10.378Z,8.80
2017-12-23T15:37:39.487Z,8.80
2017-12-23T15:40:07.850Z,8.80
2017-12-23T15:42:36.159Z,8.80
2017-12-23T15:45:05.237Z,8.80
2017-12-23T15:47:33.527Z,8.80
2017-12-23T15:50:01.808Z,8.90
2017-12-23T15:52:30.223Z,8.90
2017-12-23T15:54:58.506Z,8.90
2017-12-23T15:57:26.787Z,8.80
2017-12-23T15:59:55.119Z,8.90
2017-12-23T16:02:24.171Z,9.00
2017-12-23T16:04:52.667Z,9.00
2017-12-23T16:07:20.992Z,9.00
2017-12-23T16:09:50.823Z,9.00
2017-12-23T16:12:19.134Z,9.10
2017-12-23T16:14:48.235Z,9.00
2017-12-23T16:17:17.290Z,9.00
2017-12-23T16:19:45.656Z,9.10
2017-12-23T16:22:13.942Z,9.10
2017-12-23T16:24:42.235Z,9.00
2017-12-23T16:27:10.583Z,9.00
2017-12-23T16:29:38.978Z,9.00
2017-12-23T16:32:07.754Z,9.00
2017-12-23T16:34:36.214Z,9.00
2017-12-23T16:37:04.514Z,9.00
2017-12-23T16:39:32.843Z,9.00
2017-12-23T16:42:02.684Z,8.90
2017-12-23T16:44:31.743Z,8.90
2017-12-23T16:47:00.083Z,8.90
2017-12-23T16:49:29.152Z,9.00
2017-12-23T16:51:57.491Z,9.00
2017-12-23T16:54:26.579Z,9.00
2017-12-23T16:56:54.881Z,9.00
2017-12-23T16:59:24.211Z,9.00
2017-12-23T17:01:52.576Z,9.00
2017-12-23T17:04:20.952Z,9.00
2017-12-23T17:06:49.343Z,9.10
2017-12-23T17:09:17.632Z,9.00
2017-12-23T17:11:45.950Z,9.00
2017-12-23T17:14:15.061Z,9.00
2017-12-23T17:16:44.231Z,9.00
2017-12-23T17:19:12.534Z,9.00
2017-12-23T17:21:40.871Z,9.10
2017-12-23T17:24:09.222Z,9.00
2017-12-23T17:26:38.274Z,9.00
2017-12-23T17:29:18.511Z,9.00
2017-12-23T17:31:47.567Z,9.10
2017-12-23T17:34:15.858Z,9.00
2017-12-23T17:36:44.194Z,9.00
2017-12-23T17:39:13.298Z,9.10
2017-12-23T17:41:42.405Z,9.10
2017-12-23T17:44:11.464Z,9.10
2017-12-23T17:46:39.745Z,9.10
2017-12-23T17:49:08.090Z,9.20
2017-12-23T17:51:36.401Z,9.10
2017-12-23T17:54:04.740Z,9.20
2017-12-23T17:56:34.692Z,9.10
2017-12-23T17:59:03.324Z,9.20
2017-12-23T18:01:32.270Z,9.10
2017-12-23T18:04:06.922Z,9.20
2017-12-23T18:06:36.425Z,9.10
2017-12-23T18:09:06.762Z,9.20
2017-12-23T18:11:36.797Z,9.20
2017-12-23T18:14:07.541Z,9.20
2017-12-23T18:16:37.670Z,9.20
2017-12-23T18:19:06.472Z,9.20
2017-12-23T18:21:37.833Z,9.20
2017-12-23T18:24:06.342Z,9.20
2017-12-23T18:26:34.639Z,9.20
2017-12-23T18:29:03.702Z,9.20
2017-12-23T18:31:32.039Z,9.20
2017-12-23T18:34:00.439Z,9.20
2017-12-23T18:36:28.723Z,9.10
2017-12-23T18:38:57.061Z,9.10
2017-12-23T18:41:25.358Z,9.10
2017-12-23T18:43:53.660Z,9.20
2017-12-23T18:46:22.000Z,9.20
2017-12-23T18:48:52.414Z,9.10
2017-12-23T18:51:20.719Z,9.10
2017-12-23T18:53:49.966Z,9.10
2017-12-23T18:56:18.387Z,9.00
2017-12-23T18:58:46.726Z,9.00
2017-12-23T19:01:15.867Z,9.10
2017-12-23T19:03:44.190Z,9.00
2017-12-23T19:06:12.483Z,9.00
2017-12-23T19:08:40.836Z,8.90
2017-12-23T19:11:09.119Z,9.00
2017-12-23T19:13:37.410Z,8.90
2017-12-23T19:16:05.916Z,9.00
2017-12-23T19:18:34.248Z,9.00
2017-12-23T19:21:03.317Z,9.10
2017-12-23T19:23:31.620Z,9.10
2017-12-23T19:25:59.947Z,9.20
2017-12-23T19:28:29.007Z,9.10
2017-12-23T19:30:57.395Z,9.10
2017-12-23T19:33:25.646Z,9.20
2017-12-23T19:35:53.994Z,9.20
2017-12-23T19:38:22.340Z,9.20
2017-12-23T19:40:51.616Z,9.20
2017-12-23T19:43:20.733Z,9.30
2017-12-23T19:45:49.018Z,9.20
2017-12-23T19:48:18.079Z,9.30
2017-12-23T19:50:46.440Z,9.30
2017-12-23T19:53:14.731Z,9.30
2017-12-23T19:55:43.018Z,9.40
2017-12-23T19:58:11.361Z,9.40
2017-12-23T20:00:41.208Z,9.40
2017-12-23T20:03:10.318Z,9.40
2017-12-23T20:05:39.399Z,9.40
2017-12-23T20:08:07.691Z,9.40
2017-12-23T20:10:36.053Z,9.40
2017-12-23T20:13:04.344Z,9.50
2017-12-23T20:15:32.635Z,9.50
2017-12-23T20:18:01.043Z,9.50
2017-12-23T20:20:29.335Z,9.50
2017-12-23T20:22:57.631Z,9.50
2017-12-23T20:25:26.019Z,9.60
2017-12-23T20:27:54.408Z,9.60
2017-12-23T20:30:22.698Z,9.60
2017-12-23T20:32:51.001Z,9.60
2017-12-23T20:35:19.319Z,9.60
2017-12-23T20:37:47.611Z,9.60
2017-12-23T20:40:15.939Z,9.60
2017-12-23T20:42:44.243Z,9.60
2017-12-23T20:45:13.018Z,9.70
2017-12-23T20:47:41.331Z,9.70
2017-12-23T20:50:09.812Z,9.70
2017-12-23T20:52:38.675Z,9.80
2017-12-23T20:55:07.008Z,9.80
2017-12-23T20:57:35.329Z,9.80
2017-12-23T21:00:04.431Z,9.70
2017-12-23T21:02:33.505Z,9.70
2017-12-23T21:05:01.836Z,9.70
2017-12-23T21:07:30.958Z,9.80
2017-12-23T21:09:59.251Z,9.80
2017-12-23T21:12:27.542Z,9.80
2017-12-23T21:14:55.883Z,9.80
2017-12-23T21:17:24.177Z,9.70
2017-12-23T21:19:52.515Z,9.80
2017-12-23T21:22:20.807Z,9.80
2017-12-23T21:24:49.147Z,9.80
2017-12-23T21:27:17.488Z,9.80
2017-12-23T21:29:45.823Z,9.80
2017-12-23T21:32:14.111Z,9.90
2017-12-23T21:34:42.452Z,9.90
2017-12-23T21:37:10.752Z,9.90
2017-12-23T21:39:39.048Z,9.90
2017-12-23T21:42:07.378Z,9.90
2017-12-23T21:44:35.675Z,10.00
2017-12-23T21:47:04.074Z,10.00
2017-12-23T21:49:32.331Z,10.00
2017-12-23T21:52:00.626Z,10.00
2017-12-23T21:54:28.964Z,9.90
2017-12-23T21:56:57.263Z,10.00
2017-12-23T21:59:25.602Z,10.00
2017-12-23T22:01:53.899Z,10.00
2017-12-23T22:04:22.198Z,10.00
2017-12-23T22:06:51.339Z,10.00
2017-12-23T22:09:19.671Z,10.00
2017-12-23T22:11:47.970Z,9.90
2017-12-23T22:14:16.311Z,9.80
2017-12-23T22:16:44.648Z,10.00
2017-12-23T22:19:13.047Z,10.00
2017-12-23T22:21:41.388Z,10.00
2017-12-23T22:24:09.728Z,9.90
2017-12-23T22:26:38.024Z,10.00
2017-12-23T22:29:07.223Z,10.00
2017-12-23T22:31:36.331Z,9.90
2017-12-23T22:34:04.766Z,9.90
2017-12-23T22:36:33.052Z,9.90
2017-12-23T22:39:01.344Z,9.90
2017-12-23T22:41:29.679Z,9.90
2017-12-23T22:43:58.009Z,9.90
2017-12-23T22:46:26.323Z,9.90
2017-12-23T22:48:54.663Z,10.00
2017-12-23T22:51:23.008Z,9.90
2017-12-23T22:53:51.348Z,9.90
2017-12-23T22:56:21.357Z,10.00
2017-12-23T22:58:51.185Z,9.90
2017-12-23T23:01:19.526Z,9.90
2017-12-23T23:03:47.890Z,9.90
2017-12-23T23:06:16.992Z,10.00
2017-12-23T23:08:45.319Z,10.00
2017-12-23T23:11:13.635Z,10.00
2017-12-23T23:13:41.991Z,10.00
2017-12-23T23:16:10.303Z,10.00
2017-12-23T23:18:38.659Z,10.00
2017-12-23T23:21:07.707Z,10.10
2017-12-23T23:23:37.058Z,10.00
2017-12-23T23:26:05.397Z,10.00
2017-12-23T23:28:33.699Z,10.00
2017-12-23T23:31:01.996Z,9.90
2017-12-23T23:33:30.328Z,10.00
2017-12-23T23:35:59.418Z,9.90
2017-12-23T23:38:27.787Z,9.90
2017-12-23T23:40:56.123Z,10.00
2017-12-23T23:43:25.216Z,10.00
2017-12-23T23:45:53.599Z,10.00
2017-12-23T23:48:21.898Z,10.00
2017-12-23T23:50:50.967Z,10.00
2017-12-23T23:53:19.338Z,10.00
2017-12-23T23:55:47.634Z,10.00
2017-12-23T23:58:15.935Z,10.10
